Terminal Aerodrome Forecast
Issued by NWS Caribou, ME

Home | Current Version | Previous Version | Text Only | Print | Product List | Glossary On
Versions: 1 2 3 4 5 6 7 8 9 10 11 12 13 14 15 16 17 18 19
340
FTUS41 KCAR 030536
TAFBGR
TAF
KBGR 030536Z 0306/0406 25003KT P6SM -SHRASN SCT035 OVC050
     FM031000 34007KT P6SM OVC025
     FM031600 34010KT P6SM OVC035=

USA.gov is the U.S. government's official web portal to all federal, state and local government web resources and services.